Buynaksk, Russia
Current Conditions -  °F | °C
As of 10:30 AM on Monday 22 Dec 2014 (Local Time) from URML Reporting Station
Broken Clouds Broken Clouds  
Wind Chill: 39°   Ceiling: 2000
Heat Index: 45°   Visibility: 4mi
Dew Point: 37°   Wind: 11mph
Humidity: 76%   Direction: 340°NNW
Pressure: 29.74"   Gusts: NA
Location:  42.83°N, 47.12°E
Report Text: URML 220730Z 34005MPS 6000 BKN020 07/03 Q1007 BECMG 32013G18MPSRMK QFE755/1006 SC070
Loading
Personal Weather Stations






























Interactive Weather Map New forecast layout! Learn more

10-Day Weather Forecast

Advertisements
Track Severe Weather on mobile